createdAt,value
2017-09-14T00:00:37.376Z,21.27
2017-09-14T00:03:06.257Z,18.83
2017-09-14T00:05:35.121Z,14.63
2017-09-14T00:08:03.979Z,8.95
2017-09-14T00:10:33.198Z,8.10
2017-09-14T00:13:02.042Z,8.30
2017-09-14T00:15:31.699Z,7.12
2017-09-14T00:18:00.490Z,6.55
2017-09-14T00:20:29.326Z,9.02
2017-09-14T00:22:59.039Z,26.58
2017-09-14T00:25:28.595Z,12.98
2017-09-14T00:27:57.456Z,8.02
2017-09-14T00:30:26.509Z,9.70
2017-09-14T00:32:56.118Z,6.85
2017-09-14T00:35:25.679Z,7.40
2017-09-14T00:37:54.817Z,12.05
2017-09-14T00:40:24.841Z,9.73
2017-09-14T00:42:53.753Z,12.15
2017-09-14T00:45:23.010Z,9.93
2017-09-14T00:47:52.634Z,10.35
2017-09-14T00:50:22.298Z,17.12
2017-09-14T00:52:51.818Z,15.07
2017-09-14T00:55:20.900Z,18.80
2017-09-14T00:57:49.762Z,19.03
2017-09-14T01:00:19.084Z,25.20
2017-09-14T01:02:47.936Z,15.50
2017-09-14T01:05:16.718Z,12.40
2017-09-14T01:07:45.732Z,10.90
2017-09-14T01:10:15.073Z,22.33
2017-09-14T01:12:44.346Z,12.37
2017-09-14T01:15:13.289Z,14.07
2017-09-14T01:17:42.884Z,10.90
2017-09-14T01:20:11.842Z,19.23
2017-09-14T01:22:40.751Z,17.10
2017-09-14T01:25:10.840Z,12.45
2017-09-14T01:27:39.936Z,11.33
2017-09-14T01:30:09.032Z,16.42
2017-09-14T01:32:38.118Z,18.60
2017-09-14T01:35:07.058Z,18.80
2017-09-14T01:37:36.774Z,13.17
2017-09-14T01:40:05.721Z,19.80
2017-09-14T01:42:35.118Z,13.93
2017-09-14T01:45:04.212Z,13.45
2017-09-14T01:47:33.177Z,18.47
2017-09-14T01:50:02.309Z,19.25
2017-09-14T01:52:31.136Z,18.20
2017-09-14T01:55:00.524Z,13.10
2017-09-14T01:57:29.467Z,16.50
2017-09-14T01:59:58.377Z,20.12
2017-09-14T02:02:27.468Z,17.92
2017-09-14T02:04:56.554Z,20.20
2017-09-14T02:07:25.818Z,20.08
2017-09-14T02:09:54.684Z,18.73
2017-09-14T02:12:23.638Z,18.27
2017-09-14T02:14:52.497Z,15.20
2017-09-14T02:17:21.615Z,15.35
2017-09-14T02:19:50.439Z,15.45
2017-09-14T02:22:19.383Z,14.50
2017-09-14T02:24:49.706Z,21.83
2017-09-14T02:27:18.800Z,20.55
2017-09-14T02:29:47.893Z,16.35
2017-09-14T02:32:17.123Z,22.00
2017-09-14T02:34:46.872Z,14.85
2017-09-14T02:37:16.198Z,13.65
2017-09-14T02:39:45.071Z,17.17
2017-09-14T02:42:13.979Z,15.33
2017-09-14T02:44:43.094Z,26.00
2017-09-14T02:47:12.451Z,21.23
2017-09-14T02:49:41.738Z,11.85
2017-09-14T02:52:10.752Z,17.62
2017-09-14T02:54:39.673Z,14.93
2017-09-14T02:57:08.530Z,12.85
2017-09-14T02:59:37.500Z,22.87
2017-09-14T03:02:06.320Z,19.00
2017-09-14T03:04:35.162Z,16.73
2017-09-14T03:07:04.490Z,26.50
2017-09-14T03:09:33.405Z,25.57
2017-09-14T03:12:02.349Z,28.98
2017-09-14T03:14:31.298Z,23.40
2017-09-14T03:17:00.272Z,25.20
2017-09-14T03:19:29.582Z,23.92
2017-09-14T03:21:58.717Z,18.45
2017-09-14T03:24:27.830Z,16.12
2017-09-14T03:26:56.975Z,23.60
2017-09-14T03:29:25.714Z,14.85
2017-09-14T03:31:54.928Z,20.40
2017-09-14T03:34:23.938Z,19.17
2017-09-14T03:36:53.060Z,16.65
2017-09-14T03:39:22.862Z,20.33
2017-09-14T03:41:52.029Z,19.27
2017-09-14T03:44:21.260Z,20.10
2017-09-14T03:46:50.443Z,19.73
2017-09-14T03:49:19.513Z,17.05
2017-09-14T03:51:48.473Z,20.98
2017-09-14T03:54:17.444Z,20.10
2017-09-14T03:56:46.429Z,23.08
2017-09-14T03:59:16.299Z,22.40
2017-09-14T04:01:46.148Z,21.93
2017-09-14T04:04:15.867Z,18.75
2017-09-14T04:06:45.656Z,15.90
2017-09-14T04:09:14.601Z,18.95
2017-09-14T04:11:43.924Z,17.60
2017-09-14T04:14:13.190Z,17.47
2017-09-14T04:16:42.090Z,25.73
2017-09-14T04:19:10.964Z,23.05
2017-09-14T04:21:40.255Z,17.80
2017-09-14T04:24:09.266Z,19.43
2017-09-14T04:26:38.321Z,26.75
2017-09-14T04:29:08.265Z,17.20
2017-09-14T04:31:37.273Z,22.30
2017-09-14T04:34:06.373Z,16.95
2017-09-14T04:36:35.190Z,15.07
2017-09-14T04:39:04.302Z,16.90
2017-09-14T04:41:33.881Z,19.85
2017-09-14T04:44:03.848Z,19.47
2017-09-14T04:46:32.776Z,21.75
2017-09-14T04:49:01.579Z,22.48
2017-09-14T04:51:31.516Z,19.15
2017-09-14T04:54:01.394Z,22.87
2017-09-14T04:56:30.422Z,11.60
2017-09-14T04:59:00.277Z,12.82
2017-09-14T05:01:29.217Z,14.52
2017-09-14T05:03:59.493Z,10.50
2017-09-14T05:06:28.434Z,15.27
2017-09-14T05:08:58.229Z,16.65
2017-09-14T05:11:27.207Z,21.30
2017-09-14T05:13:56.142Z,17.48
2017-09-14T05:16:25.362Z,16.45
2017-09-14T05:18:54.176Z,15.77
2017-09-14T05:21:23.194Z,15.10
2017-09-14T05:23:53.201Z,11.60
2017-09-14T05:26:23.109Z,21.03
2017-09-14T05:28:52.008Z,20.37
2017-09-14T05:31:22.042Z,12.75
2017-09-14T05:33:51.066Z,12.73
2017-09-14T05:36:20.015Z,14.85
2017-09-14T05:38:49.820Z,7.62
2017-09-14T05:41:19.642Z,11.10
2017-09-14T05:43:49.798Z,16.87
2017-09-14T05:46:19.137Z,17.10
2017-09-14T05:48:48.147Z,12.88
2017-09-14T05:51:17.938Z,16.27
2017-09-14T05:53:46.880Z,22.00
2017-09-14T05:56:15.893Z,23.53
2017-09-14T05:58:45.343Z,14.20
2017-09-14T06:01:15.306Z,13.10
2017-09-14T06:03:44.363Z,13.38
2017-09-14T06:06:13.712Z,16.70
2017-09-14T06:08:43.027Z,10.63
2017-09-14T06:11:11.882Z,21.83
2017-09-14T06:13:40.731Z,20.20
2017-09-14T06:16:10.386Z,16.67
2017-09-14T06:18:39.598Z,14.77
2017-09-14T06:21:08.479Z,10.32
2017-09-14T06:23:37.289Z,13.03
2017-09-14T06:26:06.938Z,12.85
2017-09-14T06:28:35.803Z,14.57
2017-09-14T06:31:06.027Z,9.38
2017-09-14T06:33:35.913Z,11.45
2017-09-14T06:36:04.834Z,9.77
2017-09-14T06:38:34.057Z,10.15
2017-09-14T06:41:03.006Z,11.88
2017-09-14T06:43:32.733Z,8.13
2017-09-14T06:46:01.649Z,9.00
2017-09-14T06:48:30.447Z,12.02
2017-09-14T06:50:59.747Z,7.00
2017-09-14T06:53:28.547Z,11.80
2017-09-14T06:55:58.310Z,8.73
2017-09-14T06:58:27.428Z,6.35
2017-09-14T07:00:56.371Z,5.35
2017-09-14T07:03:25.921Z,5.00
2017-09-14T07:05:54.969Z,6.75
2017-09-14T07:08:24.541Z,6.13
2017-09-14T07:10:53.453Z,2.22
2017-09-14T07:13:23.079Z,5.97
2017-09-14T07:15:52.661Z,5.10
2017-09-14T07:18:21.521Z,8.00
2017-09-14T07:20:50.832Z,5.47
2017-09-14T07:23:19.734Z,5.77
2017-09-14T07:25:48.669Z,5.10
2017-09-14T07:28:17.790Z,4.65
2017-09-14T07:30:46.827Z,12.70
2017-09-14T07:33:17.186Z,24.80
2017-09-14T07:35:46.247Z,14.85
2017-09-14T07:38:16.657Z,10.35
2017-09-14T07:40:45.866Z,5.87
2017-09-14T07:43:15.654Z,9.40
2017-09-14T07:45:44.746Z,6.20
2017-09-14T07:48:14.073Z,7.20
2017-09-14T07:50:43.069Z,6.50
2017-09-14T07:53:12.702Z,8.65
2017-09-14T07:55:41.728Z,4.60
2017-09-14T07:58:10.945Z,14.60
2017-09-14T08:00:39.979Z,14.13
2017-09-14T08:03:09.258Z,14.70
2017-09-14T08:05:39.070Z,11.38
2017-09-14T08:08:08.946Z,12.32
2017-09-14T08:10:37.823Z,12.23
2017-09-14T08:13:06.778Z,15.68
2017-09-14T08:15:35.988Z,9.97
2017-09-14T08:18:04.889Z,19.00
2017-09-14T08:20:33.799Z,13.10
2017-09-14T08:23:02.989Z,4.43
2017-09-14T08:25:31.892Z,7.07
2017-09-14T08:28:00.861Z,22.67
2017-09-14T08:30:29.849Z,8.80
2017-09-14T08:32:58.931Z,9.67
2017-09-14T08:35:28.226Z,8.20
2017-09-14T08:37:57.254Z,9.50
2017-09-14T08:40:26.433Z,9.10
2017-09-14T08:42:55.476Z,7.32
2017-09-14T08:45:25.329Z,6.27
2017-09-14T08:47:54.353Z,6.78
2017-09-14T08:50:23.409Z,9.40
2017-09-14T08:52:52.429Z,6.07
2017-09-14T08:55:21.397Z,7.12
2017-09-14T08:57:50.521Z,12.20
2017-09-14T09:00:19.618Z,5.03
2017-09-14T09:02:48.628Z,5.20
2017-09-14T09:05:18.124Z,4.50
2017-09-14T09:07:47.378Z,8.33
2017-09-14T09:10:17.516Z,6.83
2017-09-14T09:12:46.352Z,8.13
2017-09-14T09:15:15.201Z,6.05
2017-09-14T09:17:44.662Z,5.07
2017-09-14T09:20:13.900Z,3.60
2017-09-14T09:22:42.942Z,2.10
2017-09-14T09:25:12.731Z,5.20
2017-09-14T09:27:41.638Z,3.90
2017-09-14T09:30:11.390Z,3.58
2017-09-14T09:32:40.200Z,15.53
2017-09-14T09:35:09.260Z,6.65
2017-09-14T09:37:38.363Z,5.43
2017-09-14T09:40:07.385Z,6.37
2017-09-14T09:42:36.326Z,5.33
2017-09-14T09:45:05.458Z,7.12
2017-09-14T09:47:34.742Z,6.12
2017-09-14T09:50:03.799Z,13.68
2017-09-14T09:52:33.672Z,6.70
2017-09-14T09:55:02.771Z,5.20
2017-09-14T09:57:31.848Z,2.90
2017-09-14T10:00:00.998Z,4.33
2017-09-14T10:02:30.848Z,7.30
2017-09-14T10:04:59.695Z,4.30
2017-09-14T10:07:29.542Z,11.40
2017-09-14T10:09:58.378Z,10.38
2017-09-14T10:12:27.321Z,6.50
2017-09-14T10:14:56.276Z,6.70
2017-09-14T10:17:25.885Z,9.52
2017-09-14T10:19:55.663Z,6.60
2017-09-14T10:22:24.748Z,5.50
2017-09-14T10:24:53.758Z,6.82
2017-09-14T10:27:22.705Z,9.63
2017-09-14T10:29:51.949Z,10.70
2017-09-14T10:32:21.020Z,5.43
2017-09-14T10:34:50.328Z,2.80
2017-09-14T10:37:19.373Z,6.20
2017-09-14T10:39:48.319Z,6.30
2017-09-14T10:42:17.623Z,3.07
2017-09-14T10:44:46.602Z,2.67
2017-09-14T10:47:15.707Z,4.00
2017-09-14T10:49:44.724Z,2.85
2017-09-14T10:52:13.710Z,3.67
2017-09-14T10:54:42.718Z,3.45
2017-09-14T10:57:11.697Z,9.95
2017-09-14T10:59:41.275Z,5.78
2017-09-14T11:02:10.128Z,8.40
2017-09-14T11:04:39.059Z,7.07
2017-09-14T11:08:37.414Z,4.62
2017-09-14T11:11:06.338Z,6.22
2017-09-14T11:13:36.074Z,6.55
2017-09-14T11:16:05.046Z,7.10
2017-09-14T11:18:35.930Z,7.15
2017-09-14T11:21:05.486Z,5.00
2017-09-14T11:23:35.123Z,7.95
2017-09-14T11:26:04.278Z,22.40
2017-09-14T11:28:33.081Z,10.27
2017-09-14T11:31:02.830Z,20.17
2017-09-14T11:33:31.927Z,12.68
2017-09-14T11:36:01.068Z,8.35
2017-09-14T11:38:31.097Z,15.32
2017-09-14T11:41:00.840Z,10.60
2017-09-14T11:43:30.913Z,14.07
2017-09-14T11:46:00.999Z,18.60
2017-09-14T11:48:30.253Z,19.60
2017-09-14T11:51:00.375Z,39.50
2017-09-14T11:53:29.515Z,26.73
2017-09-14T11:55:58.952Z,7.28
2017-09-14T11:58:28.918Z,17.08
2017-09-14T12:00:58.015Z,10.38
2017-09-14T12:03:27.060Z,10.53
2017-09-14T12:05:55.986Z,4.00
2017-09-14T12:08:26.109Z,11.57
2017-09-14T12:10:55.802Z,11.13
2017-09-14T12:13:25.791Z,8.85
2017-09-14T12:15:55.626Z,7.30
2017-09-14T12:18:25.477Z,6.03
2017-09-14T12:20:54.647Z,10.63
2017-09-14T12:23:23.605Z,6.97
2017-09-14T12:25:52.441Z,29.40
2017-09-14T12:28:21.307Z,23.62
2017-09-14T12:30:51.057Z,31.17
2017-09-14T12:33:19.989Z,39.83
2017-09-14T12:35:48.796Z,21.95
2017-09-14T12:38:18.419Z,29.75
2017-09-14T12:40:47.246Z,18.83
2017-09-14T12:43:16.171Z,9.65
2017-09-14T12:45:45.806Z,16.10
2017-09-14T12:48:15.254Z,8.82
2017-09-14T12:50:44.710Z,27.70
2017-09-14T12:53:13.720Z,13.75
2017-09-14T12:55:42.806Z,15.23
2017-09-14T12:58:11.946Z,12.82
2017-09-14T13:00:41.099Z,11.68
2017-09-14T13:03:10.547Z,13.33
2017-09-14T13:05:40.358Z,5.80
2017-09-14T13:08:09.352Z,6.43
2017-09-14T13:10:39.310Z,7.87
2017-09-14T13:13:08.349Z,2.60
2017-09-14T13:15:37.578Z,9.40
2017-09-14T13:18:07.426Z,2.83
2017-09-14T13:20:37.239Z,7.50
2017-09-14T13:23:06.175Z,7.57
2017-09-14T13:25:35.814Z,39.85
2017-09-14T13:28:05.195Z,19.25
2017-09-14T13:30:35.240Z,39.15
2017-09-14T13:33:04.846Z,29.65
2017-09-14T13:35:34.499Z,30.23
2017-09-14T13:38:03.419Z,23.47
2017-09-14T13:40:33.102Z,8.60
2017-09-14T13:43:02.170Z,14.90
2017-09-14T13:45:31.660Z,7.25
2017-09-14T13:48:00.790Z,12.67
2017-09-14T13:50:30.080Z,7.35
2017-09-14T13:52:59.202Z,6.47
2017-09-14T13:55:31.405Z,10.85
2017-09-14T13:58:00.551Z,16.15
2017-09-14T14:00:30.405Z,13.98
2017-09-14T14:02:59.923Z,15.73
2017-09-14T14:05:28.763Z,8.27
2017-09-14T14:07:58.603Z,7.32
2017-09-14T14:10:27.546Z,10.23
2017-09-14T14:12:56.675Z,8.07
2017-09-14T14:15:27.270Z,7.80
2017-09-14T14:17:56.436Z,6.70
2017-09-14T14:20:25.326Z,8.98
2017-09-14T14:22:54.214Z,2.78
2017-09-14T14:25:23.025Z,6.10
2017-09-14T14:27:52.283Z,10.25
2017-09-14T14:30:21.197Z,4.15
2017-09-14T14:32:50.261Z,2.97
2017-09-14T14:35:19.236Z,12.80
2017-09-14T14:37:48.289Z,22.30
2017-09-14T14:40:17.451Z,29.33
2017-09-14T14:42:46.679Z,17.37
2017-09-14T14:45:16.163Z,8.98
2017-09-14T14:47:45.588Z,6.93
2017-09-14T14:50:14.742Z,11.37
2017-09-14T14:52:43.721Z,26.73
2017-09-14T14:55:12.870Z,27.25
2017-09-14T14:57:42.284Z,24.80
2017-09-14T15:00:11.445Z,34.70
2017-09-14T15:02:40.500Z,35.85
2017-09-14T15:05:10.170Z,36.67
2017-09-14T15:07:39.353Z,16.23
2017-09-14T15:10:11.352Z,10.68
2017-09-14T15:12:45.645Z,25.90
2017-09-14T15:15:18.294Z,34.17
2017-09-14T15:17:50.737Z,4.50
2017-09-14T15:20:22.148Z,2.65
2017-09-14T15:22:52.901Z,3.50
2017-09-14T15:25:25.421Z,4.23
2017-09-14T15:27:58.417Z,2.60
2017-09-14T15:30:28.630Z,4.67
2017-09-14T15:32:59.436Z,3.50
2017-09-14T15:35:29.345Z,6.55
2017-09-14T15:37:58.354Z,2.53
2017-09-14T15:42:35.724Z,2.65
2017-09-14T15:46:10.465Z,2.55
2017-09-14T15:48:43.744Z,4.17
2017-09-14T15:52:17.909Z,1.30
2017-09-14T15:54:46.919Z,4.30
2017-09-14T15:57:16.071Z,3.20
2017-09-14T15:59:45.201Z,3.28
2017-09-14T16:02:14.519Z,4.43
2017-09-14T16:04:43.796Z,1.48
2017-09-14T16:07:12.755Z,2.65
2017-09-14T16:09:41.677Z,2.20
2017-09-14T16:12:11.397Z,5.47
2017-09-14T16:14:40.276Z,2.10
2017-09-14T16:17:09.276Z,1.90
2017-09-14T16:19:38.279Z,5.30
2017-09-14T16:22:07.534Z,4.95
2017-09-14T16:24:36.731Z,1.50
2017-09-14T16:27:05.611Z,8.40
2017-09-14T16:29:34.481Z,2.07
2017-09-14T16:32:03.372Z,1.98
2017-09-14T16:34:33.471Z,4.20
2017-09-14T16:37:03.080Z,2.00
2017-09-14T16:39:32.877Z,3.50
2017-09-14T16:42:01.864Z,5.40
2017-09-14T16:44:30.750Z,6.95
2017-09-14T16:46:59.745Z,4.78
2017-09-14T16:49:28.658Z,6.40
2017-09-14T16:51:58.506Z,7.60
2017-09-14T16:54:27.469Z,7.25
2017-09-14T16:56:57.394Z,2.28
2017-09-14T16:59:26.270Z,5.07
2017-09-14T17:01:56.137Z,5.05
2017-09-14T17:04:25.350Z,6.10
2017-09-14T17:06:55.270Z,3.63
2017-09-14T17:09:25.514Z,27.87
2017-09-14T17:11:54.517Z,12.75
2017-09-14T17:14:24.281Z,4.70
2017-09-14T17:16:53.595Z,2.20
2017-09-14T17:19:22.707Z,7.30
2017-09-14T17:21:52.559Z,2.83
2017-09-14T17:24:22.109Z,10.57
2017-09-14T17:26:51.066Z,10.32
2017-09-14T17:29:20.163Z,2.97
2017-09-14T17:31:49.099Z,3.30
2017-09-14T17:34:19.118Z,4.43
2017-09-14T17:36:49.170Z,7.50
2017-09-14T17:39:18.273Z,7.35
2017-09-14T17:41:47.590Z,5.93
2017-09-14T17:44:17.425Z,3.45
2017-09-14T17:46:47.836Z,6.87
2017-09-14T17:49:16.962Z,8.13
2017-09-14T17:51:46.607Z,3.83
2017-09-14T17:54:15.589Z,4.60
2017-09-14T17:56:44.620Z,9.10
2017-09-14T17:59:14.042Z,5.95
2017-09-14T18:01:43.062Z,6.40
2017-09-14T18:04:12.150Z,7.07
2017-09-14T18:06:42.433Z,7.47
2017-09-14T18:09:12.061Z,9.23
2017-09-14T18:11:41.823Z,7.80
2017-09-14T18:14:10.730Z,5.68
2017-09-14T18:16:40.146Z,8.40
2017-09-14T18:19:09.915Z,7.82
2017-09-14T18:21:39.224Z,8.80
2017-09-14T18:24:08.664Z,9.10
2017-09-14T18:26:39.475Z,9.93
2017-09-14T18:29:08.877Z,11.98
2017-09-14T18:31:37.920Z,14.00
2017-09-14T18:34:07.249Z,9.38
2017-09-14T18:36:36.265Z,10.80
2017-09-14T18:39:06.494Z,12.32
2017-09-14T18:41:35.462Z,8.57
2017-09-14T18:44:04.408Z,9.07
2017-09-14T18:46:37.505Z,7.18
2017-09-14T18:49:06.756Z,10.35
2017-09-14T18:51:36.365Z,8.98
2017-09-14T18:54:07.409Z,10.60
2017-09-14T18:56:36.376Z,6.45
2017-09-14T18:59:06.030Z,10.80
2017-09-14T19:02:35.825Z,12.70
2017-09-14T19:05:04.758Z,8.18
2017-09-14T19:07:33.876Z,11.30
2017-09-14T19:10:02.985Z,16.90
2017-09-14T19:12:32.142Z,12.70
2017-09-14T19:15:01.056Z,11.75
2017-09-14T19:17:30.353Z,15.82
2017-09-14T19:19:59.270Z,11.07
2017-09-14T19:22:28.203Z,9.47
2017-09-14T19:24:57.839Z,17.83
2017-09-14T19:27:27.221Z,20.43
2017-09-14T19:29:56.488Z,14.05
2017-09-14T19:32:26.381Z,13.65
2017-09-14T19:34:55.612Z,21.00
2017-09-14T19:37:25.687Z,11.95
2017-09-14T19:39:54.980Z,15.68
2017-09-14T19:42:24.154Z,11.57
2017-09-14T19:44:54.985Z,19.65
2017-09-14T19:47:24.196Z,11.10
2017-09-14T19:49:53.337Z,13.90
2017-09-14T19:52:23.111Z,11.02
2017-09-14T19:54:52.171Z,9.13
2017-09-14T19:57:27.841Z,10.83
2017-09-14T19:59:57.935Z,18.12
2017-09-14T20:02:27.736Z,14.18
2017-09-14T20:04:56.919Z,14.50
2017-09-14T20:07:28.375Z,10.80
2017-09-14T20:10:14.845Z,14.15
2017-09-14T20:12:46.297Z,11.93
2017-09-14T20:15:20.246Z,15.68
2017-09-14T20:17:50.224Z,17.02
2017-09-14T20:20:21.328Z,9.55
2017-09-14T20:22:50.596Z,11.85
2017-09-14T20:25:22.089Z,12.48
2017-09-14T20:27:52.022Z,13.55
2017-09-14T20:30:22.469Z,13.88
2017-09-14T20:32:52.254Z,13.07
2017-09-14T20:35:21.188Z,43.45
2017-09-14T20:37:50.437Z,14.60
2017-09-14T20:40:20.197Z,17.00
2017-09-14T20:42:49.902Z,16.60
2017-09-14T20:45:19.649Z,14.43
2017-09-14T20:47:48.464Z,17.00
2017-09-14T20:50:17.655Z,14.63
2017-09-14T20:52:46.746Z,17.08
2017-09-14T20:55:15.838Z,13.77
2017-09-14T20:57:44.728Z,14.77
2017-09-14T21:00:14.008Z,15.75
2017-09-14T21:02:43.203Z,17.48
2017-09-14T21:05:12.215Z,9.38
2017-09-14T21:07:41.216Z,12.48
2017-09-14T21:10:10.447Z,18.43
2017-09-14T21:12:40.552Z,7.97
2017-09-14T21:15:10.261Z,16.10
2017-09-14T21:17:39.225Z,11.53
2017-09-14T21:20:08.483Z,15.07
2017-09-14T21:22:37.531Z,14.82
2017-09-14T21:25:06.619Z,13.40
2017-09-14T21:27:35.586Z,10.15
2017-09-14T21:30:04.859Z,10.33
2017-09-14T21:32:33.758Z,23.13
2017-09-14T21:35:02.722Z,10.27
2017-09-14T21:37:32.403Z,14.43
2017-09-14T21:40:01.522Z,21.00
2017-09-14T21:42:31.439Z,15.05
2017-09-14T21:45:01.190Z,13.25
2017-09-14T21:47:30.134Z,16.25
2017-09-14T21:49:59.837Z,13.27
2017-09-14T21:52:29.626Z,12.83
2017-09-14T21:54:59.692Z,19.10
2017-09-14T21:57:28.972Z,20.42
2017-09-14T21:59:58.749Z,27.15
2017-09-14T22:02:27.777Z,22.62
2017-09-14T22:04:56.853Z,20.30
2017-09-14T22:07:26.597Z,25.37
2017-09-14T22:09:55.405Z,23.87
2017-09-14T22:12:24.447Z,24.77
2017-09-14T22:14:54.001Z,30.13
2017-09-14T22:17:22.868Z,24.83
2017-09-14T22:19:51.747Z,29.63
2017-09-14T22:22:20.829Z,25.58
2017-09-14T22:24:50.050Z,40.35
2017-09-14T22:27:19.936Z,23.85
2017-09-14T22:29:49.059Z,26.40
2017-09-14T22:32:18.226Z,22.58
2017-09-14T22:34:48.228Z,26.55
2017-09-14T22:37:17.438Z,27.73
2017-09-14T22:39:47.137Z,27.98
2017-09-14T22:42:16.869Z,24.50
2017-09-14T22:44:46.873Z,20.47
2017-09-14T22:47:16.525Z,24.17
2017-09-14T22:49:45.442Z,31.35
2017-09-14T22:52:14.440Z,26.98
2017-09-14T22:54:43.337Z,27.27
2017-09-14T22:57:13.274Z,25.42
2017-09-14T22:59:43.102Z,22.40
2017-09-14T23:02:12.235Z,21.50
2017-09-14T23:04:41.184Z,27.48
2017-09-14T23:07:10.379Z,25.27
2017-09-14T23:09:39.296Z,22.25
2017-09-14T23:12:08.233Z,35.05
2017-09-14T23:14:38.116Z,52.23
2017-09-14T23:17:07.022Z,23.73
2017-09-14T23:19:36.336Z,30.98
2017-09-14T23:22:06.801Z,39.25
2017-09-14T23:24:35.890Z,28.75
2017-09-14T23:27:05.199Z,18.80
2017-09-14T23:29:34.376Z,24.85
2017-09-14T23:32:03.430Z,27.80
2017-09-14T23:34:33.332Z,13.82
2017-09-14T23:37:02.310Z,13.27
2017-09-14T23:39:31.700Z,16.30
2017-09-14T23:42:01.037Z,17.92
2017-09-14T23:44:30.258Z,9.85
2017-09-14T23:47:00.116Z,12.25
2017-09-14T23:49:29.289Z,14.43
2017-09-14T23:51:58.774Z,17.37
2017-09-14T23:54:27.622Z,13.07
2017-09-14T23:56:56.812Z,9.85
2017-09-14T23:59:26.127Z,16.45
